Sunbury, Ohio
Current Conditions -  °F | °C
As of 12:41 AM on Monday 22 Dec 2014 (Local Time) from KDLZ Reporting Station
Scattered Clouds Scattered Clouds  
Wind Chill: 18°   Ceiling: Unl
Heat Index: 25°   Visibility: 7mi
Dew Point: 21°   Wind: 6mph
Humidity: 86%   Direction: 100°E
Pressure: 30.14"   Gusts: NA
Location:  40.24°N, 82.86°W
Report Text: KDLZ 220541Z AUTO 10005KT 7SM SCT110 M04/M06 A3014 RMK AO2
Loading
Personal Weather Stations






























Interactive Weather Map New forecast layout! Learn more

10-Day Weather Forecast

Advertisements
Track Severe Weather on mobile